Smithville, Texas
Current Conditions -  °F | °C
As of 9:10 AM on Friday 19 Dec 2014 (Local Time) from K3T5 Reporting Station
Overcast Overcast  
Wind Chill: 52°   Ceiling: 1000
Heat Index: 52°   Visibility: 10mi
Dew Point: 50°   Wind: 9mph
Humidity: 95%   Direction: 20°NNE
Pressure: 30.08"   Gusts: NA
Location:  30.01°N, 97.16°W
Report Text: K3T5 191510Z AUTO 02008KT 10SM BKN010 OVC033 11/10 A3008 RMK AO2 T01100102
Loading
Personal Weather Stations






























Interactive Weather Map New forecast layout! Learn more

10-Day Weather Forecast

Advertisements
Track Severe Weather on mobile